Dunlap, Ohio
Current Conditions -  °F | °C
As of 11:35 PM on Wednesday 22 Oct 2014 (Local Time) from KI67 Reporting Station
Overcast Overcast  
Wind Chill: 45°   Ceiling: 2400
Heat Index: 45°   Visibility: 10mi
Dew Point: 41°   Wind: 0mph
Humidity: 87%   Direction: NA
Pressure: 30.27"   Gusts: NA
Location:  39.2201°N, 84.6531°W
Report Text: KI67 230335Z AUTO 00000KT 10SM OVC024 07/05 A3027 RMK AO1
Loading
Personal Weather Stations






























Interactive Weather Map
Tropical Storm Tracking
New forecast layout! Learn more

10-Day Weather Forecast

Advertisements
Track Severe Weather on mobile